Terminal Aerodrome Forecast
Issued by NWS

Home | Current Version | Previous Version | Text Only | Print | Product List | Glossary On
Versions: 1 2 3 4 5 6 7 8 9 10 11 12 13 14 15 16 17 18 19 20 21 22
000
FTUS42 KFFC 181745
TAFPDK
TAF
KPDK 181745Z 1818/1918 08005KT P6SM BKN035
     FM182000 12006KT P6SM BKN025
     FM190200 11008KT 6SM -DZ BR OVC009
     FM190800 12007KT 3SM -DZ BR OVC006
     FM191500 14007KT P6SM BKN012=

USA.gov is the U.S. government's official web portal to all federal, state and local government web resources and services.